Historyczne dane pomiarowe

Dodano dane terminowe – wersja testowa.

Dane z okresu 1951-2019

Wersja bazy: 1.34 [2019-03-16, lista zmian], aktualizacja planowana na 2019-04-15

Dane meteo z obszaru Polski uzyskane na podstawie danych udostępnionych przez Instytut Meteorologii i Gospodarki Wodnej – Państwowy Instytut Badawczy.

 

Wybierz Datę:    

       

TemperaturaWilgotnośćZachmurzenieWiatrCiśnienieWidzialnośćZjawiska
 Data    tng td wb rh cc ccl cl cm ch dir g1 g2 mslp ppp      
1999-08-04 00:00:00 14.4--- 10.5 12.277wxwxwx0wx--1017.4 995.2 0.0---wx
1999-08-04 01:00:00 12.6--- 9.5 10.981wxwxwx0wx--1017.5 995.2----wx
1999-08-04 02:00:00 12.9--- 8.8 10.776wxwxwx0wx--1017.3 995.0----wx
1999-08-04 03:00:00 10.4--- 7.3 8.881wxwxwx0wx--1017.4 994.9----wx
1999-08-04 04:00:00 11.1--- 5.9 8.571wxwx1wx--1017.6 995.2----wx
1999-08-04 05:00:00 14.6--- 9.9 12.074wxwx0wx--1017.4 995.2----wx
1999-08-04 06:00:00 17.0--- 13.3 14.879wxwxwx0wx--1017.0 995.0 0.0---wx
1999-08-04 07:00:00 22.1--- 9.8 15.046wxwxwxwx0wx--1016.5 994.9----wx
1999-08-04 08:00:00 24.0--- 9.6 15.640wxwxwxwx2wx--1016.2 994.7----wx
1999-08-04 09:00:00 23.0--- 7.4 14.337wxwxwxwx2wx--1016.1 994.6----wx
1999-08-04 10:00:00 25.0--- 7.7 15.233wxwxwxwx2wx--1015.9 994.5----wx
1999-08-04 11:00:00 25.0--- 8.4 15.535wxwxwxwx3wx--1015.6 994.2----wx
1999-08-04 12:00:00 24.2--- 8.0 15.035wxwxwxwx4wx--1015.3 993.9 0.0---wx
1999-08-04 13:00:00 25.4--- 8.3 15.634wxwxwxwx3wx--1014.8 993.5----wx
1999-08-04 14:00:00 25.6--- 8.1 15.633wxwxwxwx4wx--1014.5 993.2----wx
1999-08-04 15:00:00 24.9--- 7.8 15.234wxwxwx3wx--1014.2 992.9----wx
1999-08-04 16:00:00 23.0--- 9.5 15.242wxwxwx2wx--1014.2 992.7----wx
1999-08-04 17:00:00 23.6--- 9.0 15.239wxwxwx2wx--1014.1 992.7----wx
1999-08-04 18:00:00 21.0--- 9.9 14.649wxwxwx2wx--1014.4 992.8 0.0---wx
1999-08-04 19:00:00 17.0--- 9.5 12.861wxwxwx2wx--1015.0 993.1----wx
1999-08-04 20:00:00 16.6--- 10.3 13.066wxwx3wx--1015.3 993.3----wx
1999-08-04 21:00:00 16.0--- 10.8 13.071wxwx3wx--1015.2 993.2----wx
1999-08-04 22:00:00 15.8--- 10.3 12.770wxwx2wx--1015.3 993.3----wx
1999-08-04 23:00:00 15.5--- 10.0 12.470wxwx2wx--1015.4 993.3----wx

 

Źródłem pochodzenia danych jest Instytut Meteorologii i Gospodarki Wodnej – Państwowy Instytut Badawczy. Dane Instytutu Meteorologii i Gospodarki Wodnej – Państwowego Instytutu Badawczego zostały przetworzone.

Dane źródłowe można odnaleźć na stronie https://dane.imgw.pl